Tiempo atmosférico en la estación meteorológica de Belorado, Burgos (875 m.)



Fecha
DESCASC
Temp. máxima en grados centígrados (hora)
DESCASC
Temp. mínima en grados centígrados (hora)
DESCASC
Temp. media en grados centígrados
DESCASC
Racha de viento máxima en m/sg (hora)
DESCASC
Velocidad máxima media en intervalos de 10 minutos(hora)
DESCASC
Precipitaciones diarias en mm
DESCASC
Precipitaciones de 00:00 a 06:00 en mm
DESCASC
Precipitaciones de 06:00 a 12:00 en mm
DESCASC
Precipitaciones de 12:00 a 18:00 en mm
DESCASC
Precipitaciones de 18:00 a 24:00 en mm
DESCASC
16-06-2019 25.1 (16:40) 4.9 (06:30) 15 7.78 (16:20) 3.89 (14:50) 0 0 0 0 0
15-06-2019 21.8 (17:50) 8.6 (06:50) 15.2 7.78 (20:40) 3.89 (19:20) 0 0 0 0 0
14-06-2019 22.7 (16:30) 8.8 (04:50) 15.8 9.17 (16:30) 5.28 (17:50) 0 0 0 0 0
13-06-2019 24.5 (18:50) 4.7 (00:00) 14.6 7.5 (19:20) 4.72 (19:20) 0 0 0 0 0
12-06-2019 20.2 (18:50) 2.9 (00:00) 11.6 9.72 (13:00) 4.72 (12:40) 0 0 0 0 0
11-06-2019 13.2 (16:40) 5.8 (00:00) 9.5 10 (17:20) 5.83 (17:20) 3.5 3.2 0 0.3 0
10-06-2019 15.6 (18:20) 7.4 (00:00) 11.5 6.39 (19:10) 3.61 (19:20) 0.4 0.1 0 0 0.3
09-06-2019 20.5 (15:40) 8.8 (00:00) 14.7 9.44 (17:50) 4.72 (17:40) 0 0 0 0 0
08-06-2019 20 (17:20) 3.3 (00:00) 11.6 8.61 (13:40) 4.44 (19:40) 0 0 0 0 0
07-06-2019 17.3 (18:00) 6.5 (00:00) 11.9 13.61 (08:40) 5.83 (01:00) 3.6 3.6 0 0 0
06-06-2019 21.1 (17:10) 4.3 (00:00) 12.7 15.83 (22:10) 5 (17:50) 0.3 0 0 0 0.3
05-06-2019 13.1 (18:20) 7.2 (00:00) 10.2 11.39 (13:50) 5.83 (13:50) 16.8 4.9 7.8 2.7 1.4
04-06-2019 24.9 (15:00) 9.6 (00:00) 17.3 12.78 (15:40) 6.11 (20:00) 0.6 0 0 0 0.6
03-06-2019 29.6 (16:00) 11.6 (00:00) 20.6 8.89 (15:40) 3.33 (15:50) 0 0 0 0 0
02-06-2019 29.3 (17:10) 9.7 (00:00) 19.5 7.22 (18:20) 4.44 (21:10) 0 0 0 0 0
01-06-2019 28.6 (17:50) 9.7 (00:00) 19.2 6.39 (16:20) 3.61 (17:00) 0 0 0 0 0
31-05-2019 26.5 (17:00) 8.7 (00:00) 17.6 7.22 (15:40) 3.61 (14:00) 0 0 0 0 0
30-05-2019 24.2 (17:30) 5.1 (00:00) 14.7 7.78 (15:10) 3.61 (19:20) 0 0 0 0 0
29-05-2019 15.8 (18:50) 7.8 (00:00) 11.8 6.11 (18:00) 3.33 (17:40) 0 0 0 0 0
28-05-2019 14.6 (17:00) 6.8 (00:00) 10.7 7.5 (13:30) 5 (13:30) 0 0 0 0 0
27-05-2019 17.6 (17:30) 5.5 (00:00) 11.6 7.5 (17:30) 5 (20:50) 0 0 0 0 0
26-05-2019 14 (19:10) 7.3 (00:00) 10.7 6.11 (16:20) 4.17 (19:30) 0.1 0 0.1 0 0
25-05-2019 14.2 (16:20) 7.8 (00:00) 11 6.67 (16:10) 4.17 (17:20) 0.2 0.1 0.1 0 0
24-05-2019 12.5 (17:20) 8.3 (00:00) 10.4 7.22 (17:50) 4.72 (18:00) 3.1 3 0.1 0 0
23-05-2019 20.7 (17:20) 8.3 (00:00) 14.5 7.78 (22:10) 4.44 (22:10) 0.5 0 0 0 0.5
22-05-2019 23.4 (19:00) 3.6 (00:00) 13.5 5.28 (16:10) 2.5 (20:20) 0 0 0 0 0

Gráficas

Temp. máximas Temp. mínimas Temp. medias Precipitaciones Rachas de viento máximas Velocidades máximas media en intervalos de 10 minutos

Datos horarios

Fecha y hora oficial Temperatura (ºC) Velocidad del viento (km/h) Dirección del viento Racha (km/h) Dirección de racha Precipitación (mm) Presión (hPa) Tendencia (hPa) Humedad (%)
2019-06-20 23:00:00 12 9 Norte 17 Norte 1.1 -- -- 97
2019-06-20 22:00:00 12.6 8 Nordeste 18 Norte 0.1 -- -- 93
2019-06-20 21:00:00 13.4 8 Nordeste 24 Norte 0 -- -- 83
2019-06-20 20:00:00 14.3 13 Norte 24 Norte 0 -- -- 77
2019-06-20 19:00:00 15 10 Nordeste 27 Este 0 -- -- 72
2019-06-20 18:00:00 16.2 11 Este 26 Norte 0 -- -- 68
2019-06-20 17:00:00 16.6 12 Nordeste 23 Este 0 -- -- 68
2019-06-20 16:00:00 17 11 Este 24 Este 0 -- -- 68
2019-06-20 15:00:00 16 9 Nordeste 19 Este 0 -- -- 72
2019-06-20 14:00:00 15.8 9 Norte 19 Norte 0 -- -- 73
2019-06-20 13:00:00 16.1 9 Este 18 Este 0 -- -- 70
2019-06-20 12:00:00 15.1 4 Nordeste 16 Norte 0 -- -- 75
2019-06-20 11:00:00 13.7 9 Norte 16 Norte 0 -- -- 83
2019-06-20 10:00:00 13.3 9 Nordeste 15 Este 0 -- -- 86
2019-06-20 09:00:00 13.4 9 Este 15 Este 0 -- -- 87
2019-06-20 08:00:00 12.7 7 Este 15 Este 0 -- -- 92
2019-06-20 07:00:00 12.5 7 Este 14 Este 0 -- -- 91
2019-06-20 06:00:00 12.9 6 Este 12 Este 0 -- -- 91
2019-06-20 05:00:00 12.9 2 Nordeste 9 Este 0 -- -- 94
2019-06-20 04:00:00 12.9 6 Nordeste 14 Este 0 -- -- 93
2019-06-20 03:00:00 13.1 9 Este 15 Este 0 -- -- 93
2019-06-20 02:00:00 13.6 6 Este 13 Este 0 -- -- 92
2019-06-20 01:00:00 13.5 8 Este 15 Este 0 -- -- 93
2019-06-20 00:00:00 13.8 9 Este 19 Este 0 -- -- 93
2019-06-19 23:00:00 14.2 13 Este 22 Este 0 -- -- 90
2019-06-19 22:00:00 16.9 16 Este 27 Este 0 -- -- 72
2019-06-19 21:00:00 21.9 12 Oeste 24 Oeste 0 -- -- 43
2019-06-19 20:00:00 23.4 9 Oeste 25 Oeste 0 -- -- 42
2019-06-19 19:00:00 23.7 11 Oeste 27 Oeste 0 -- -- 43
2019-06-19 18:00:00 22.6 10 Oeste 25 Oeste 0 -- -- 46
2019-06-19 17:00:00 22.9 11 Oeste 28 Oeste 0 -- -- 45
2019-06-19 16:00:00 21.9 9 Oeste 23 Oeste 0 -- -- 47
2019-06-19 15:00:00 22.3 10 Oeste 24 Oeste 0 -- -- 46
2019-06-19 14:00:00 21 9 Sudoeste 27 Sur 0 -- -- 49
2019-06-19 13:00:00 19.7 8 Sudoeste 27 Oeste 0 -- -- 54
2019-06-19 12:00:00 19.3 8 Sudoeste 27 Oeste 0 -- -- 58
2019-06-19 11:00:00 18.5 10 Sudoeste 30 Sur 0 -- -- 60
2019-06-19 10:00:00 18.1 8 Sudoeste 28 Oeste 0 -- -- 64
2019-06-19 09:00:00 16.7 10 Sudoeste 28 Sur 0 -- -- 70
2019-06-19 08:00:00 16.2 9 Sudoeste 31 Oeste 0 -- -- 70
2019-06-19 07:00:00 15.9 6 Sudoeste 26 Oeste 0 -- -- 69
2019-06-19 06:00:00 15.6 5 Sudoeste 17 Sur 0 -- -- 75
2019-06-19 05:00:00 15.2 4 Sudoeste 21 Sur 0 -- -- 75
2019-06-19 04:00:00 15.6 4 Sudoeste 18 Oeste 0 -- -- 70
2019-06-19 03:00:00 15 4 Sudoeste 18 Sur 0 -- -- 70
2019-06-19 02:00:00 15.8 3 Sudoeste 13 Oeste 0 -- -- 63
2019-06-19 01:00:00 16.4 6 Oeste 12 Sur 0 -- -- 57
2019-06-19 00:00:00 15.6 0 Calma 16 Oeste 0 -- -- 56
2019-06-18 23:00:00 18.9 4 Sudoeste 21 Oeste 0 -- -- 44
2019-06-18 22:00:00 21.3 9 Sudoeste 26 Oeste 0 -- -- 38
2019-06-18 21:00:00 23.9 12 Sudoeste 31 Oeste 0 -- -- 28
2019-06-18 20:00:00 25.9 15 Oeste 34 Sur 0 -- -- 22
2019-06-18 19:00:00 28.2 9 Sudoeste 39 Sur 0 -- -- 14
2019-06-18 18:00:00 28.4 15 Sudoeste 49 Sur 0 -- -- 15
2019-06-18 17:00:00 28.9 13 Sudoeste 41 Oeste 0 -- -- 15
2019-06-18 16:00:00 29.3 13 Sudoeste 35 Sur 0 -- -- 15
2019-06-18 15:00:00 28.5 13 Sudoeste 39 Oeste 0 -- -- 16
2019-06-18 14:00:00 28.6 9 Sur 35 Oeste 0 -- -- 19
2019-06-18 13:00:00 26.8 11 Sudoeste 35 Oeste 0 -- -- 20
2019-06-18 12:00:00 26 9 Sudoeste 28 Sur 0 -- -- 23
2019-06-18 11:00:00 24.4 11 Sudoeste 29 Oeste 0 -- -- 29
2019-06-18 10:00:00 20.8 4 Norte 10 Este 0 -- -- 50
2019-06-18 09:00:00 18.2 0 Calma 6 Sur 0 -- -- 50
2019-06-18 08:00:00 13.8 3 Sudoeste 9 Oeste 0 -- -- 59
2019-06-18 07:00:00 13.3 3 Sur 8 Sur 0 -- -- 54
2019-06-18 06:00:00 13.5 2 Sur 9 Este 0 -- -- 52
2019-06-18 05:00:00 14.6 2 Sudoeste 10 Sur 0 -- -- 46
2019-06-18 04:00:00 16.7 0 Calma 12 Oeste 0 -- -- 41
2019-06-18 03:00:00 19.5 4 Sudoeste 21 Oeste 0 -- -- 35
2019-06-18 02:00:00 18.9 4 Sudoeste 17 Oeste 0 -- -- 38
2019-06-18 01:00:00 19.4 4 Sudoeste 12 Sur 0 -- -- 39
2019-06-18 00:00:00 19.7 3 Sudoeste 14 Oeste 0 -- -- 43
2019-06-17 23:00:00 19.2 3 Sudoeste 12 Oeste 0 -- -- 47
2019-06-17 22:00:00 21.3 2 Sudoeste 9 Este 0 -- -- 43
2019-06-17 21:00:00 22.7 6 Este 10 Este 0 -- -- 41
2019-06-17 20:00:00 24.9 3 Este 26 Este 0 -- -- 35
2019-06-17 19:00:00 26.7 8 Este 16 Este 0 -- -- 27
2019-06-17 18:00:00 29.1 5 Sudoeste 18 Sur 0 -- -- 16
2019-06-17 17:00:00 29.1 4 Sudoeste 19 Sur 0 -- -- 16
2019-06-17 16:00:00 28.5 8 Sudeste 23 Norte 0 -- -- 19
2019-06-17 15:00:00 27.5 9 Este 23 Este 0 -- -- 27
2019-06-17 14:00:00 26.2 9 Este 21 Norte 0 -- -- 32
2019-06-17 13:00:00 24.9 7 Norte 18 Este 0 -- -- 37
2019-06-17 12:00:00 22.7 7 Norte 13 Norte 0 -- -- 43
2019-06-17 11:00:00 20.5 4 Norte 11 Norte 0 -- -- 54
2019-06-17 10:00:00 18.2 4 Norte 13 Este 0 -- -- 68
2019-06-17 09:00:00 16.2 0 Calma 8 Oeste 0 -- -- 77
2019-06-17 08:00:00 11.7 3 Sudoeste 12 Sur 0 -- -- 87
2019-06-17 07:00:00 9.4 0 Calma 8 Sur 0 -- -- 93
2019-06-17 06:00:00 9.8 2 Sudoeste 9 Sur 0 -- -- 93
2019-06-17 05:00:00 10.2 3 Sudoeste 9 Sur 0 -- -- 93
2019-06-17 04:00:00 11.1 4 Sudoeste 8 Sur 0 -- -- 91
2019-06-17 03:00:00 11.8 4 Sur 9 Sur 0 -- -- 90
2019-06-17 02:00:00 12.1 2 Sur 10 Sur 0 -- -- 88
2019-06-17 01:00:00 13.1 2 Sudoeste 7 Sur 0 -- -- 85
2019-06-17 00:00:00 13.7 6 Este 8 Este 0 -- -- 83
2019-06-16 23:00:00 15.6 8 Este 11 Este 0 -- -- 73
2019-06-16 22:00:00 16.9 6 Este 13 Norte 0 -- -- 56
2019-06-16 21:00:00 19.1 0 Calma 10 Este 0 -- -- 46
2019-06-16 20:00:00 22.5 6 Este 19 Este 0 -- -- 33
2019-06-16 19:00:00 23.7 10 Este 21 Este 0 -- -- 31
2019-06-16 18:00:00 24.4 11 Este 24 Este 0 -- -- 30
2019-06-16 17:00:00 24.6 8 Este 28 Este 0 -- -- 30
2019-06-16 16:00:00 24.6 9 Este 23 Este 0 -- -- 31
2019-06-16 15:00:00 23 12 Este 23 Este 0 -- -- 35
2019-06-16 14:00:00 21.9 10 Este 25 Este 0 -- -- 38
2019-06-16 13:00:00 20.3 9 Este 25 Este 0 -- -- 45
2019-06-16 12:00:00 18.7 7 Nordeste 17 Este 0 -- -- 50
2019-06-16 11:00:00 16.2 3 Nordeste 10 Norte 0 -- -- 59
2019-06-16 10:00:00 13.2 5 Este 11 Este 0 -- -- 69
2019-06-16 09:00:00 11.5 0 Calma 3 Norte 0 -- -- 79
2019-06-16 08:00:00 7.9 0 Calma 6 Sur 0 -- -- 90
2019-06-16 07:00:00 5.4 0 Calma 5 Oeste 0 -- -- 93
2019-06-16 06:00:00 5.4 0 Calma 5 Oeste 0 -- -- 94
2019-06-16 05:00:00 5.7 0 Calma 7 Oeste 0 -- -- 92
2019-06-16 04:00:00 6.1 0 Calma 6 Sur 0 -- -- 91
2019-06-16 03:00:00 6.9 2 Sudoeste 6 Sur 0 -- -- 91
2019-06-16 02:00:00 7.4 0 Calma 6 Este 0 -- -- 90
2019-06-16 01:00:00 7.8 6 Este 8 Este 0 -- -- 89
2019-06-16 00:00:00 8.8 5 Este 11 Este 0 -- -- 86
2019-06-15 23:00:00 10.1 9 Este 13 Este 0 -- -- 81
2019-06-15 22:00:00 11.8 8 Este 23 Este 0 -- -- 69
2019-06-15 21:00:00 14.9 13 Nordeste 28 Norte 0 -- -- 55
2019-06-15 20:00:00 18.1 12 Nordeste 24 Norte 0 -- -- 42
2019-06-15 19:00:00 20.3 9 Norte 22 Norte 0 -- -- 33
2019-06-15 18:00:00 21 2 Norte 19 Norte 0 -- -- 30
2019-06-15 17:00:00 21.1 8 Norte 18 Norte 0 -- -- 32
2019-06-15 16:00:00 19.8 3 Este 16 Norte 0 -- -- 35
2019-06-15 15:00:00 18 3 Noroeste 19 Norte 0 -- -- 37
2019-06-15 14:00:00 17.7 3 Oeste 19 Oeste 0 -- -- 39
2019-06-15 13:00:00 16.8 0 Calma 17 Norte 0 -- -- 41
2019-06-15 12:00:00 16.7 5 Norte 14 Norte 0 -- -- 44
2019-06-15 11:00:00 15.1 4 Este 10 Este 0 -- -- 50
2019-06-15 10:00:00 13.2 4 Noroeste 10 Este 0 -- -- 55
2019-06-15 09:00:00 11.8 6 Este 10 Este 0 -- -- 63
2019-06-15 08:00:00 9.9 0 Calma 5 Este 0 -- -- 85
2019-06-15 07:00:00 8.7 3 Este 7 Este 0 -- -- 89
2019-06-15 06:00:00 8.8 3 Este 6 Este 0 -- -- 88
2019-06-15 05:00:00 9.3 4 Este 12 Este 0 -- -- 87
2019-06-15 04:00:00 9.6 7 Este 15 Este 0 -- -- 88
2019-06-15 03:00:00 9.4 12 Este 19 Este 0 -- -- 88
2019-06-15 02:00:00 11 4 Este 9 Este 0 -- -- 86
2019-06-15 01:00:00 10.9 8 Este 11 Este 0 -- -- 86
2019-06-15 00:00:00 11.3 6 Este 10 Norte 0 -- -- 83
2019-06-14 23:00:00 11.6 3 Nordeste 15 Este 0 -- -- 82
2019-06-14 22:00:00 11.8 10 Este 19 Este 0 -- -- 80
2019-06-14 21:00:00 12.6 12 Este 22 Este 0 -- -- 72
2019-06-14 20:00:00 15.2 14 Este 26 Este 0 -- -- 58
2019-06-14 19:00:00 18.7 11 Este 22 Norte 0 -- -- 47
2019-06-14 18:00:00 19.8 17 Norte 31 Este 0 -- -- 44
2019-06-14 17:00:00 21.3 9 Nordeste 33 Este 0 -- -- 39
2019-06-14 16:00:00 21.8 9 Nordeste 28 Este 0 -- -- 38
2019-06-14 15:00:00 20.6 12 Este 23 Este 0 -- -- 42
2019-06-14 14:00:00 19.1 9 Este 18 Este 0 -- -- 48
2019-06-14 13:00:00 15.6 5 Este 15 Este 0 -- -- 60
2019-06-14 12:00:00 12.5 6 Sudeste 13 Este 0 -- -- 74
2019-06-14 11:00:00 10.6 4 Nordeste 9 Norte 0 -- -- 89
2019-06-14 10:00:00 9.5 3 Este 15 Este 0 -- -- 94
2019-06-14 09:00:00 9.2 5 Este 13 Este 0 -- -- 96
2019-06-14 08:00:00 9 5 Este 10 Este 0 -- -- 99
2019-06-14 07:00:00 8.9 4 Nordeste 9 Norte 0 -- -- 99
2019-06-14 06:00:00 9.1 3 Nordeste 10 Norte 0 -- -- 99
2019-06-14 05:00:00 8.9 6 Norte 12 Norte 0 -- -- 99
2019-06-14 04:00:00 9 7 Norte 13 Norte 0 -- -- 99
2019-06-14 03:00:00 9.3 5 Nordeste 12 Norte 0 -- -- 99
2019-06-14 02:00:00 9.4 6 Este 14 Norte 0 -- -- 97
2019-06-14 01:00:00 9.8 6 Este 15 Este 0 -- -- 95
2019-06-14 00:00:00 9.9 10 Este 18 Este 0 -- -- 92
2019-06-13 23:00:00 10.3 13 Este 22 Este 0 -- -- 90
2019-06-13 22:00:00 10.7 14 Este 20 Este 0 -- -- 89
2019-06-13 21:00:00 13.4 16 Este 23 Este 0 -- -- 73
2019-06-13 20:00:00 16.8 14 Este 27 Norte 0 -- -- 60
2019-06-13 19:00:00 23.8 5 Sudoeste 18 Sur 0 -- -- 21
2019-06-13 18:00:00 23.7 4 Sudoeste 21 Norte 0 -- -- 23
2019-06-13 17:00:00 22.8 3 Noroeste 22 Norte 0 -- -- 30
2019-06-13 16:00:00 21.5 10 Este 22 Este 0 -- -- 34
2019-06-13 15:00:00 21.2 13 Este 22 Norte 0 -- -- 37
2019-06-13 14:00:00 20.5 12 Nordeste 26 Este 0 -- -- 43
2019-06-13 13:00:00 17.2 14 Este 26 Este 0 -- -- 54
2019-06-13 12:00:00 15 8 Este 18 Este 0 -- -- 60
2019-06-13 11:00:00 12.2 8 Este 20 Este 0 -- -- 69
2019-06-13 10:00:00 9.4 6 Este 13 Norte 0 -- -- 85
2019-06-13 09:00:00 8.3 5 Este 10 Este 0 -- -- 91
2019-06-13 08:00:00 7 4 Nordeste 8 Noroeste 0 -- -- 97
2019-06-13 07:00:00 6.7 2 Norte 7 Norte 0 -- -- 97
2019-06-13 06:00:00 6.4 4 Norte 7 Norte 0 -- -- 97
2019-06-13 05:00:00 6.6 2 Norte 5 Este 0 -- -- 96
2019-06-13 04:00:00 5.7 2 Este 6 Este 0 -- -- 95
2019-06-13 03:00:00 5.4 0 Calma 5 Este 0 -- -- 93
2019-06-13 02:00:00 6.3 4 Este 8 Este 0 -- -- 93
2019-06-13 01:00:00 7.2 5 Este 10 Este 0 -- -- 91
2019-06-13 00:00:00 7.3 5 Este 9 Este 0 -- -- 90
2019-06-12 23:00:00 7.9 9 Este 12 Nordeste 0 -- -- 88
2019-06-12 22:00:00 9.5 8 Este 19 Este 0 -- -- 80
2019-06-12 21:00:00 12.6 12 Este 28 Norte 0 -- -- 60
2019-06-12 20:00:00 15.6 13 Nordeste 29 Norte 0 -- -- 41
2019-06-12 19:00:00 19.9 8 Sudoeste 23 Oeste 0 -- -- 20
2019-06-12 18:00:00 19.4 13 Oeste 27 Oeste 0 -- -- 21
2019-06-12 17:00:00 19.1 12 Oeste 28 Oeste 0 -- -- 22
2019-06-12 16:00:00 18.6 9 Oeste 28 Oeste 0 -- -- 23
2019-06-12 15:00:00 17.1 9 Sur 27 Oeste 0 -- -- 24
2019-06-12 14:00:00 16.4 8 Sudoeste 31 Oeste 0 -- -- 27
2019-06-12 13:00:00 15.3 14 Oeste 35 Oeste 0 -- -- 31
2019-06-12 12:00:00 13.8 12 Oeste 24 Oeste 0 -- -- 35
2019-06-12 11:00:00 12.7 4 Oeste 14 Sur 0 -- -- 38
2019-06-12 10:00:00 9.9 7 Norte 14 Norte 0 -- -- 63
2019-06-12 09:00:00 9.5 4 Sur 19 Sur 0 -- -- 59
2019-06-12 08:00:00 5.5 3 Sudeste 5 Este 0 -- -- 87
2019-06-12 07:00:00 3.3 0 Calma 9 Sur 0 -- -- 90
2019-06-12 06:00:00 4 0 Calma 8 Sur 0 -- -- 90
2019-06-12 05:00:00 3.6 0 Calma 8 Sur 0 -- -- 90
2019-06-12 04:00:00 3.4 3 Sudoeste 8 Oeste 0 -- -- 88
2019-06-12 03:00:00 4.6 3 Sudoeste 10 Oeste 0 -- -- 84
2019-06-12 02:00:00 5.1 4 Sudoeste 9 Sur 0 -- -- 83
2019-06-12 01:00:00 5.7 0 Calma 7 Oeste 0 -- -- 84
2019-06-12 00:00:00 5.8 3 Este 9 Oeste 0 -- -- 84
2019-06-11 23:00:00 6.9 3 Sudoeste 8 Oeste 0 -- -- 77
2019-06-11 22:00:00 8.6 0 Calma 13 Norte 0 -- -- 65
2019-06-11 21:00:00 9.8 9 Norte 17 Noroeste 0 -- -- 58
2019-06-11 20:00:00 11.4 11 Noroeste 24 Norte 0 -- -- 51
2019-06-11 19:00:00 12.3 16 Noroeste 29 Norte 0 -- -- 48
2019-06-11 18:00:00 12.3 14 Noroeste 36 Oeste 0.1 -- -- 54
2019-06-11 17:00:00 11.8 13 Noroeste 32 Norte 0 -- -- 52
2019-06-11 16:00:00 11.2 6 Oeste 30 Oeste 0.1 -- -- 61
2019-06-11 15:00:00 12.5 12 Oeste 29 Oeste 0 -- -- 51
2019-06-11 14:00:00 11.9 14 Noroeste 28 Norte 0 -- -- 55
2019-06-11 13:00:00 10.4 12 Noroeste 28 Oeste 0.1 -- -- 59
2019-06-11 12:00:00 9.4 11 Noroeste 28 Oeste 0 -- -- 66
2019-06-11 11:00:00 8.8 9 Noroeste 26 Oeste 0 -- -- 77
2019-06-11 10:00:00 8.2 10 Oeste 20 Oeste 0 -- -- 81
2019-06-11 09:00:00 7.4 6 Oeste 13 Oeste 0 -- -- 88
2019-06-11 08:00:00 7.2 5 Oeste 9 Oeste 0 -- -- 91
2019-06-11 07:00:00 7.1 3 Oeste 9 Oeste 0 -- -- 93
2019-06-11 06:00:00 7 0 Calma 5 Oeste 0 -- -- 95
2019-06-11 05:00:00 7 0 Calma 4 Sur 0.5 -- -- 94
2019-06-11 04:00:00 7 0 Calma 5 Sur 0.7 -- -- 94
2019-06-11 03:00:00 6.9 4 Este 10 Este 0.6 -- -- 93
2019-06-11 02:00:00 6.8 6 Sudeste 12 Este 0.7 -- -- 94
2019-06-11 01:00:00 7.3 7 Este 15 Este 0.7 -- -- 97
2019-06-11 00:00:00 7.9 8 Este 14 Este 0.3 -- -- 93
2019-06-10 23:00:00 8.5 7 Nordeste 14 Norte 0 -- -- 84
2019-06-10 22:00:00 9 8 Nordeste 19 Este 0 -- -- 81
2019-06-10 21:00:00 9.9 11 Norte 21 Este 0 -- -- 72
2019-06-10 20:00:00 11.4 11 Norte 23 Norte 0 -- -- 60
2019-06-10 19:00:00 14.1 7 Norte 16 Noroeste 0 -- -- 47
2019-06-10 18:00:00 14.9 9 Norte 16 Norte 0 -- -- 43
2019-06-10 17:00:00 14.7 6 Oeste 17 Norte 0 -- -- 43
2019-06-10 16:00:00 13.9 3 Norte 18 Oeste 0 -- -- 48
2019-06-10 15:00:00 12.3 3 Noroeste 17 Norte 0 -- -- 55
2019-06-10 14:00:00 12.5 3 Este 14 Norte 0 -- -- 57
2019-06-10 13:00:00 10.7 7 Este 16 Este 0 -- -- 69
2019-06-10 12:00:00 9.9 6 Nordeste 17 Este 0 -- -- 77
2019-06-10 11:00:00 8.9 7 Este 15 Este 0 -- -- 85
2019-06-10 10:00:00 8.5 9 Este 13 Este 0 -- -- 83
2019-06-10 09:00:00 8.3 4 Este 15 Este 0 -- -- 86
2019-06-10 08:00:00 7.8 5 Este 10 Este 0 -- -- 91
2019-06-10 07:00:00 7.6 6 Este 12 Este 0 -- -- 94
2019-06-10 06:00:00 7.5 8 Este 13 Este 0 -- -- 94
2019-06-10 05:00:00 7.6 8 Este 15 Este 0 -- -- 94
2019-06-10 04:00:00 8.3 9 Este 14 Este 0 -- -- 95
2019-06-10 03:00:00 8.6 8 Este 15 Este 0 -- -- 96
2019-06-10 02:00:00 8.8 8 Este 16 Este 0 -- -- 97
2019-06-10 01:00:00 9 6 Este 12 Este 0.1 -- -- 97
2019-06-10 00:00:00 9.1 8 Este 18 Este 0 -- -- 96
2019-06-09 23:00:00 9.3 12 Este 19 Este 0 -- -- 94
2019-06-09 22:00:00 9.7 12 Este 22 Este 0 -- -- 90
2019-06-09 21:00:00 10.3 9 Nordeste 28 Este 0 -- -- 90
2019-06-09 20:00:00 11.5 9 Nordeste 22 Norte 0 -- -- 84
2019-06-09 19:00:00 12.7 10 Norte 26 Norte 0 -- -- 77
2019-06-09 18:00:00 14.5 16 Nordeste 34 Norte 0 -- -- 65
2019-06-09 17:00:00 18.4 15 Nordeste 26 Norte 0 -- -- 52
2019-06-09 16:00:00 20.3 13 Norte 21 Norte 0 -- -- 44
2019-06-09 15:00:00 20.2 13 Norte 22 Norte 0 -- -- 47
2019-06-09 14:00:00 18.9 5 Nordeste 22 Norte 0 -- -- 51
2019-06-09 13:00:00 17.2 5 Norte 15 Norte 0 -- -- 58
2019-06-09 12:00:00 15.2 4 Sudeste 10 Este 0 -- -- 68
2019-06-09 11:00:00 11.6 2 Sur 8 Sur 0 -- -- 82
2019-06-09 10:00:00 10.3 0 Calma 7 Sur 0 -- -- 88
2019-06-09 09:00:00 9.9 2 Este 8 Este 0 -- -- 91
2019-06-09 08:00:00 9.4 2 Este 8 Norte 0 -- -- 95
2019-06-09 07:00:00 8.9 7 Norte 9 Norte 0 -- -- 96
2019-06-09 06:00:00 9.3 4 Este 12 Este 0 -- -- 95
2019-06-09 05:00:00 9.5 8 Este 13 Este 0 -- -- 95
2019-06-09 04:00:00 9.7 5 Este 8 Este 0 -- -- 94
2019-06-09 03:00:00 9.7 4 Norte 12 Norte 0 -- -- 95
2019-06-09 02:00:00 9.7 6 Este 13 Este 0 -- -- 94
2019-06-09 01:00:00 9.8 7 Este 16 Norte 0 -- -- 93
2019-06-09 00:00:00 9.8 10 Nordeste 17 Norte 0 -- -- 93
2019-06-08 23:00:00 10.8 6 Este 16 Este 0 -- -- 87
2019-06-08 22:00:00 12.2 9 Este 20 Este 0 -- -- 79
2019-06-08 21:00:00 14.5 12 Este 19 Norte 0 -- -- 64
2019-06-08 20:00:00 16.4 12 Nordeste 24 Norte 0 -- -- 56
2019-06-08 19:00:00 18.7 9 Nordeste 21 Norte 0 -- -- 40
2019-06-08 18:00:00 19.1 13 Este 27 Norte 0 -- -- 40
2019-06-08 17:00:00 19.8 12 Este 25 Este 0 -- -- 40
2019-06-08 16:00:00 18.7 13 Este 29 Este 0 -- -- 43
2019-06-08 15:00:00 17.9 14 Este 26 Este 0 -- -- 47
2019-06-08 14:00:00 16.4 11 Nordeste 31 Norte 0 -- -- 51
2019-06-08 13:00:00 15.2 13 Este 25 Este 0 -- -- 55
2019-06-08 12:00:00 13.9 10 Este 23 Este 0 -- -- 59
2019-06-08 11:00:00 11.9 10 Este 18 Este 0 -- -- 66
2019-06-08 10:00:00 10.4 5 Nordeste 17 Norte 0 -- -- 77
2019-06-08 09:00:00 8.2 0 Calma 4 Este 0 -- -- 84
2019-06-08 08:00:00 4.9 0 Calma 6 Sur 0 -- -- 93
2019-06-08 07:00:00 3.3 0 Calma 6 Este 0 -- -- 94
2019-06-08 06:00:00 3.8 3 Este 8 Este 0 -- -- 93
2019-06-08 05:00:00 4 3 Este 6 Este 0 -- -- 94
2019-06-08 04:00:00 5.1 0 Calma 5 Sur 0 -- -- 93
2019-06-08 03:00:00 4.7 0 Calma 6 Sur 0 -- -- 93
2019-06-08 02:00:00 4.9 4 Este 9 Este 0 -- -- 94
2019-06-08 01:00:00 6 4 Este 9 Este 0 -- -- 91
2019-06-08 00:00:00 6.6 6 Este 10 Este 0 -- -- 90
2019-06-07 23:00:00 7.3 9 Este 15 Este 0 -- -- 87
2019-06-07 22:00:00 8.9 10 Este 22 Este 0 -- -- 80
2019-06-07 21:00:00 13.1 3 Noroeste 17 Sudoeste 0 -- -- 48
2019-06-07 20:00:00 15.5 8 Oeste 24 Oeste 0 -- -- 32
2019-06-07 19:00:00 16.3 9 Sudoeste 30 Oeste 0 -- -- 29
2019-06-07 18:00:00 17.3 10 Sudoeste 30 Oeste 0 -- -- 30
2019-06-07 17:00:00 15.9 18 Oeste 32 Oeste 0 -- -- 31
2019-06-07 16:00:00 16.2 12 Oeste 35 Oeste 0 -- -- 35
2019-06-07 15:00:00 14.6 17 Oeste 37 Oeste 0 -- -- 36
2019-06-07 14:00:00 13.8 18 Oeste 39 Sur 0 -- -- 41
2019-06-07 13:00:00 13.2 17 Sudoeste 45 Sur 0 -- -- 44
2019-06-07 12:00:00 12.5 15 Sudoeste 42 Oeste 0 -- -- 50
2019-06-07 11:00:00 10.6 12 Sudoeste 39 Oeste 0 -- -- 58
2019-06-07 10:00:00 9.7 12 Sudoeste 44 Sur 0 -- -- 63
2019-06-07 09:00:00 8.9 17 Sudoeste 49 Sur 0 -- -- 67
2019-06-07 08:00:00 8.1 12 Sudoeste 45 Sur 0 -- -- 73
2019-06-07 07:00:00 7.5 12 Sudoeste 40 Oeste 0 -- -- 76
2019-06-07 06:00:00 7.6 15 Sudoeste 44 Oeste 0 -- -- 74
2019-06-07 05:00:00 7.3 13 Sur 47 Sur 0 -- -- 77
2019-06-07 04:00:00 7 10 Sudoeste 31 Sur 0.1 -- -- 81
2019-06-07 03:00:00 7.1 10 Sudoeste 43 Sur 1.1 -- -- 83
2019-06-07 02:00:00 8.1 12 Sudoeste 41 Oeste 1.9 -- -- 82
2019-06-07 01:00:00 9.8 21 Oeste 39 Oeste 0.5 -- -- 85
2019-06-07 00:00:00 13.7 6 Sudoeste 25 Sur 0.2 -- -- 64
2019-06-06 23:00:00 13.7 5 Sudoeste 57 Oeste 0.1 -- -- 59
2019-06-06 22:00:00 18.2 10 Sudoeste 35 Sur 0 -- -- 28
2019-06-06 21:00:00 18.6 11 Sur 44 Sur 0 -- -- 25
2019-06-06 20:00:00 19.8 14 Sur 45 Sur 0 -- -- 24
2019-06-06 19:00:00 19.7 9 Sur 38 Sur 0 -- -- 24
2019-06-06 18:00:00 20.1 17 Sur 43 Sur 0 -- -- 24
2019-06-06 17:00:00 20.7 9 Sur 35 Sur 0 -- -- 25
2019-06-06 16:00:00 19.1 10 Sur 30 Sur 0 -- -- 30
2019-06-06 15:00:00 17.3 4 Norte 27 Este 0 -- -- 48
2019-06-06 14:00:00 17 7 Nordeste 21 Este 0 -- -- 51
2019-06-06 13:00:00 15.1 8 Este 19 Este 0 -- -- 60
2019-06-06 12:00:00 13 5 Norte 19 Este 0 -- -- 72
2019-06-06 11:00:00 11.8 8 Este 15 Este 0 -- -- 78
2019-06-06 10:00:00 10.2 5 Este 10 Este 0 -- -- 82
2019-06-06 09:00:00 8.2 2 Este 7 Oeste 0 -- -- 85
2019-06-06 08:00:00 5.9 0 Calma 6 Oeste 0 -- -- 91
2019-06-06 07:00:00 4.5 0 Calma 7 Oeste 0 -- -- 93
2019-06-06 06:00:00 5.6 2 Sudoeste 6 Oeste 0 -- -- 93
2019-06-06 05:00:00 6.3 0 Calma 5 Sur 0 -- -- 91
2019-06-06 04:00:00 6.5 3 Este 8 Sur 0 -- -- 90
2019-06-06 03:00:00 6.6 3 Este 7 Este 0 -- -- 90
2019-06-06 02:00:00 6.9 6 Este 13 Este 0 -- -- 90
2019-06-06 01:00:00 7 5 Este 8 Este 0 -- -- 91
2019-06-06 00:00:00 7.3 4 Este 10 Este 0 -- -- 91
2019-06-05 23:00:00 8.2 6 Este 10 Este 0 -- -- 93
2019-06-05 22:00:00 8.4 6 Este 13 Este 0 -- -- 93
2019-06-05 21:00:00 8.7 9 Este 18 Este 0.1 -- -- 92
2019-06-05 20:00:00 9.4 12 Este 32 Este 1.3 -- -- 86
2019-06-05 19:00:00 12.2 6 Nordeste 14 Norte 0 -- -- 62
2019-06-05 18:00:00 12.3 8 Norte 15 Norte 0 -- -- 64
2019-06-05 17:00:00 11.2 7 Norte 24 Norte 0 -- -- 72
2019-06-05 16:00:00 11.2 3 Sudeste 11 Este 0 -- -- 67
2019-06-05 15:00:00 10.8 3 Nordeste 16 Oeste 1.3 -- -- 69
2019-06-05 14:00:00 7.8 13 Oeste 41 Oeste 1.4 -- -- 84
2019-06-05 13:00:00 11.7 14 Noroeste 27 Oeste 0 -- -- 62
2019-06-05 12:00:00 10 12 Oeste 23 Oeste 0 -- -- 81
2019-06-05 11:00:00 8.6 4 Sudoeste 12 Sur 0.4 -- -- 86
2019-06-05 10:00:00 7.8 2 Sudoeste 12 Oeste 2.8 -- -- 94
2019-06-05 09:00:00 7.3 8 Oeste 13 Oeste 1.8 -- -- 97
2019-06-05 08:00:00 7.3 3 Noroeste 19 Oeste 2.5 -- -- 96
2019-06-05 07:00:00 7.9 8 Oeste 13 Oeste 0.3 -- -- 97
2019-06-05 06:00:00 8 8 Noroeste 15 Oeste 2.3 -- -- 97
2019-06-05 05:00:00 8.6 5 Este 9 Este 0.2 -- -- 97
2019-06-05 04:00:00 8.6 3 Este 13 Este 0.1 -- -- 99
2019-06-05 03:00:00 8.5 8 Este 15 Este 0.1 -- -- 98
2019-06-05 02:00:00 8.5 6 Norte 18 Norte 1.8 -- -- 98
2019-06-05 01:00:00 9.4 5 Nordeste 15 Norte 0.4 -- -- 97
2019-06-05 00:00:00 9.6 5 Nordeste 15 Este 0.6 -- -- 96
2019-06-04 23:00:00 10.3 9 Nordeste 17 Este 0 -- -- 91
2019-06-04 22:00:00 11.5 8 Nordeste 25 Este 0 -- -- 87
2019-06-04 21:00:00 12.5 15 Este 30 Este 0 -- -- 84
2019-06-04 20:00:00 14.4 22 Este 34 Este 0 -- -- 76
2019-06-04 19:00:00 21.9 13 Oeste 32 Oeste 0 -- -- 35
2019-06-04 18:00:00 24.3 13 Oeste 36 Oeste 0 -- -- 31
2019-06-04 17:00:00 23.8 10 Sudoeste 35 Oeste 0 -- -- 32
2019-06-04 16:00:00 23 19 Oeste 46 Oeste 0 -- -- 33
2019-06-04 15:00:00 24.2 12 Oeste 31 Oeste 0 -- -- 31
2019-06-04 14:00:00 23.8 10 Sudoeste 39 Oeste 0 -- -- 31
2019-06-04 13:00:00 23 14 Sudoeste 39 Sur 0 -- -- 30
2019-06-04 12:00:00 22.3 10 Sur 40 Sur 0 -- -- 37
2019-06-04 11:00:00 21 11 Sudoeste 32 Oeste 0 -- -- 50
2019-06-04 10:00:00 18.7 6 Este 14 Este 0 -- -- 65
2019-06-04 09:00:00 16.7 8 Este 15 Este 0 -- -- 71
2019-06-04 08:00:00 14.2 8 Este 13 Este 0 -- -- 79
2019-06-04 07:00:00 14.9 4 Sudeste 19 Este 0 -- -- 74
2019-06-04 06:00:00 15.1 11 Oeste 16 Oeste 0 -- -- 77
2019-06-04 05:00:00 12.6 0 Calma 6 Sur 0 -- -- 79
2019-06-04 04:00:00 11.5 0 Calma 8 Oeste 0 -- -- 73
2019-06-04 03:00:00 13.7 2 Sudoeste 9 Sur 0 -- -- 66
2019-06-04 02:00:00 14.7 2 Sudoeste 10 Este 0 -- -- 63
2019-06-04 01:00:00 14.2 5 Este 11 Este 0 -- -- 61
2019-06-04 00:00:00 15.4 2 Sudoeste 11 Oeste 0 -- -- 53
2019-06-03 23:00:00 15.8 2 Sur 10 Oeste 0 -- -- 51
2019-06-03 22:00:00 18 10 Este 12 Este 0 -- -- 44
2019-06-03 21:00:00 23.7 2 Oeste 18 Oeste 0 -- -- 27
2019-06-03 20:00:00 28.1 7 Sudoeste 25 Oeste 0 -- -- 19
2019-06-03 19:00:00 28.3 7 Sudoeste 29 Sur 0 -- -- 17
2019-06-03 18:00:00 28.4 5 Sudoeste 26 Oeste 0 -- -- 19
2019-06-03 17:00:00 29.5 11 Oeste 26 Oeste 0 -- -- 19
2019-06-03 16:00:00 29.6 8 Sudoeste 32 Oeste 0 -- -- 20
2019-06-03 15:00:00 27.6 10 Oeste 26 Oeste 0 -- -- 23
2019-06-03 14:00:00 26.6 0 Calma 19 Este 0 -- -- 30
2019-06-03 13:00:00 23.7 3 Nordeste 15 Este 0 -- -- 43
2019-06-03 12:00:00 21.6 9 Este 19 Este 0 -- -- 48
2019-06-03 11:00:00 19.7 8 Este 15 Este 0 -- -- 54
2019-06-03 10:00:00 16.9 6 Norte 10 Norte 0 -- -- 64
2019-06-03 09:00:00 14.9 0 Calma 5 Sur 0 -- -- 70
2019-06-03 08:00:00 12.4 0 Calma 5 Oeste 0 -- -- 80
2019-06-03 07:00:00 11.7 0 Calma 6 Sur 0 -- -- 78
2019-06-03 06:00:00 12.3 6 Este 9 Este 0 -- -- 76
2019-06-03 05:00:00 11.9 0 Calma 8 Oeste 0 -- -- 77
2019-06-03 04:00:00 12 2 Sudoeste 9 Sur 0 -- -- 77
2019-06-03 03:00:00 12.9 0 Calma 9 Este 0 -- -- 75
2019-06-03 02:00:00 13.4 3 Sur 10 Este 0 -- -- 75
2019-06-03 01:00:00 13.5 8 Este 13 Este 0 -- -- 73
2019-06-03 00:00:00 14.6 8 Este 13 Este 0 -- -- 71
2019-06-02 23:00:00 15.6 9 Este 18 Este 0 -- -- 67
2019-06-02 22:00:00 17.5 8 Este 22 Este 0 -- -- 65
2019-06-02 21:00:00 20.3 13 Este 19 Este 0 -- -- 58
2019-06-02 20:00:00 27.2 5 Oeste 17 Oeste 0 -- -- 26
2019-06-02 19:00:00 27.7 5 Oeste 26 Oeste 0 -- -- 27
2019-06-02 18:00:00 28.3 11 Oeste 24 Oeste 0 -- -- 25
2019-06-02 17:00:00 28.4 3 Sudeste 20 Sur 0 -- -- 33
2019-06-02 16:00:00 27.6 9 Este 23 Este 0 -- -- 37
2019-06-02 15:00:00 27.4 13 Este 22 Este 0 -- -- 39
2019-06-02 14:00:00 26.4 9 Este 21 Este 0 -- -- 41
2019-06-02 13:00:00 25.3 4 Norte 12 Este 0 -- -- 43
2019-06-02 12:00:00 22.5 4 Norte 13 Oeste 0 -- -- 48
2019-06-02 11:00:00 20.9 3 Norte 11 Norte 0 -- -- 52
2019-06-02 10:00:00 17.7 4 Noroeste 12 Oeste 0 -- -- 59
2019-06-02 09:00:00 17.1 0 Calma 5 Sur 0 -- -- 62
2019-06-02 08:00:00 12.8 2 Sudeste 10 Oeste 0 -- -- 77
2019-06-02 07:00:00 10.2 0 Calma 10 Sudoeste 0 -- -- 80
2019-06-02 06:00:00 10.7 0 Calma 9 Oeste 0 -- -- 76
2019-06-02 05:00:00 12 2 Sudoeste 10 Oeste 0 -- -- 72
2019-06-02 04:00:00 12.7 3 Sudoeste 11 Oeste 0 -- -- 69
2019-06-02 03:00:00 13.1 2 Sudoeste 9 Sur 0 -- -- 66
2019-06-02 02:00:00 13.3 2 Sudoeste 9 Sur 0 -- -- 64
2019-06-02 01:00:00 14.4 0 Calma 10 Sur 0 -- -- 60
2019-06-02 00:00:00 15.2 0 Calma 11 Oeste 0 -- -- 56
2019-06-01 23:00:00 17 4 Sur 9 Este 0 -- -- 52
2019-06-01 22:00:00 17.3 6 Este 13 Este 0 -- -- 54
2019-06-01 21:00:00 23.5 9 Este 16 Este 0 -- -- 35
2019-06-01 20:00:00 26.3 9 Este 18 Nordeste 0 -- -- 29
2019-06-01 19:00:00 27.4 12 Este 20 Este 0 -- -- 26
2019-06-01 18:00:00 28.2 12 Este 22 Este 0 -- -- 26
2019-06-01 17:00:00 27.8 13 Este 23 Este 0 -- -- 30
2019-06-01 16:00:00 27.5 9 Este 22 Este 0 -- -- 34
2019-06-01 15:00:00 26.3 9 Este 21 Este 0 -- -- 37
2019-06-01 14:00:00 24.7 10 Este 21 Este 0 -- -- 41
2019-06-01 13:00:00 23.3 8 Este 17 Este 0 -- -- 45
2019-06-01 12:00:00 21.7 6 Este 15 Este 0 -- -- 49
2019-06-01 11:00:00 19.9 6 Este 15 Este 0 -- -- 53
2019-06-01 10:00:00 18.4 5 Este 10 Este 0 -- -- 55
2019-06-01 09:00:00 16.1 2 Norte 4 Norte 0 -- -- 62
2019-06-01 08:00:00 13.2 0 Calma 6 Oeste 0 -- -- 73
2019-06-01 07:00:00 10.1 3 Sudoeste 10 Sur 0 -- -- 76
2019-06-01 06:00:00 10.4 3 Sudoeste 10 Sur 0 -- -- 73
2019-06-01 05:00:00 11.1 2 Sudoeste 9 Oeste 0 -- -- 71
2019-06-01 04:00:00 10.8 0 Calma 10 Oeste 0 -- -- 69
2019-06-01 03:00:00 11.8 0 Calma 11 Oeste 0 -- -- 64
2019-06-01 02:00:00 12.7 5 Sudoeste 9 Sur 0 -- -- 60
2019-06-01 01:00:00 13.7 3 Sudoeste 8 Oeste 0 -- -- 56
2019-06-01 00:00:00 14.2 0 Calma 9 Sur 0 -- -- 54
2019-05-31 23:00:00 16.8 2 Sur 8 Sur 0 -- -- 47
2019-05-31 22:00:00 17.7 4 Este 9 Este 0 -- -- 48
2019-05-31 21:00:00 22.4 5 Este 12 Este 0 -- -- 38
2019-05-31 20:00:00 24.8 8 Este 16 Este 0 -- -- 30
2019-05-31 19:00:00 25.8 10 Este 22 Este 0 -- -- 26
2019-05-31 18:00:00 26 11 Este 26 Este 0 -- -- 25
2019-05-31 17:00:00 26.4 11 Este 23 Este 0 -- -- 27
2019-05-31 16:00:00 25.8 9 Nordeste 26 Este 0 -- -- 29
2019-05-31 15:00:00 25.7 11 Este 24 Este 0 -- -- 32
2019-05-31 14:00:00 24.4 13 Este 23 Este 0 -- -- 37
2019-05-31 13:00:00 23 7 Este 17 Este 0 -- -- 41
2019-05-31 12:00:00 22.1 6 Norte 21 Este 0 -- -- 44
2019-05-31 11:00:00 20 4 Nordeste 12 Norte 0 -- -- 52
2019-05-31 10:00:00 18.1 2 Norte 6 Norte 0 -- -- 58
2019-05-31 09:00:00 16.4 0 Calma 6 Sur 0 -- -- 69
2019-05-31 08:00:00 12 0 Calma 9 Sur 0 -- -- 83
2019-05-31 07:00:00 8.9 0 Calma 9 Sur 0 -- -- 90
2019-05-31 06:00:00 8.9 0 Calma 12 Sur 0 -- -- 89
2019-05-31 05:00:00 9.3 4 Sudoeste 11 Oeste 0 -- -- 88
2019-05-31 04:00:00 10.1 2 Sudoeste 8 Sur 0 -- -- 86
2019-05-31 03:00:00 10.8 3 Sudoeste 8 Sur 0 -- -- 84
2019-05-31 02:00:00 10.4 0 Calma 8 Oeste 0 -- -- 83
2019-05-31 01:00:00 12 2 Sudoeste 8 Sur 0 -- -- 80
2019-05-31 00:00:00 12.7 2 Sudeste 6 Sur 0 -- -- 76
2019-05-30 23:00:00 14.4 6 Este 10 Este 0 -- -- 70
2019-05-30 22:00:00 16 8 Este 16 Este 0 -- -- 61
2019-05-30 21:00:00 19.9 8 Nordeste 14 Este 0 -- -- 43
2019-05-30 20:00:00 22.4 8 Nordeste 21 Este 0 -- -- 34
2019-05-30 19:00:00 22.9 12 Este 19 Este 0 -- -- 27
2019-05-30 18:00:00 23.6 8 Nordeste 18 Este 0 -- -- 26
2019-05-30 17:00:00 23.6 6 Nordeste 18 Este 0 -- -- 27
2019-05-30 16:00:00 22.8 9 Norte 28 Norte 0 -- -- 30
2019-05-30 15:00:00 22.4 8 Este 22 Este 0 -- -- 34
2019-05-30 14:00:00 21.4 10 Este 18 Este 0 -- -- 35
2019-05-30 13:00:00 19.9 7 Nordeste 18 Norte 0 -- -- 43
2019-05-30 12:00:00 18.4 6 Nordeste 15 Norte 0 -- -- 49
2019-05-30 11:00:00 16.2 7 Norte 14 Norte 0 -- -- 58
2019-05-30 10:00:00 13.9 6 Norte 10 Norte 0 -- -- 65
2019-05-30 09:00:00 12.7 0 Calma 4 Este 0 -- -- 75
2019-05-30 08:00:00 8.4 0 Calma 8 Sur 0 -- -- 86
2019-05-30 07:00:00 5.5 4 Sudoeste 10 Sur 0 -- -- 89
2019-05-30 06:00:00 5.5 3 Sudoeste 9 Sur 0 -- -- 89
2019-05-30 05:00:00 5.7 3 Sudoeste 9 Sur 0 -- -- 88
2019-05-30 04:00:00 6.2 3 Sudoeste 8 Oeste 0 -- -- 88
2019-05-30 03:00:00 6.9 4 Sur 8 Sur 0 -- -- 88
2019-05-30 02:00:00 7.1 3 Sudoeste 7 Oeste 0 -- -- 88
2019-05-30 01:00:00 7.5 4 Sur 8 Sur 0 -- -- 89
2019-05-30 00:00:00 7.9 3 Sur 7 Sur 0 -- -- 86
2019-05-29 23:00:00 8.5 4 Este 9 Este 0 -- -- 84
2019-05-29 22:00:00 9.5 8 Este 12 Este 0 -- -- 79
2019-05-29 21:00:00 13 6 Este 15 Este 0 -- -- 65
2019-05-29 20:00:00 14.3 10 Este 20 Este 0 -- -- 60
2019-05-29 19:00:00 15.2 9 Nordeste 22 Este 0 -- -- 59
2019-05-29 18:00:00 14.3 11 Este 22 Este 0 -- -- 63
2019-05-29 17:00:00 13.4 8 Este 18 Este 0 -- -- 69
2019-05-29 16:00:00 12.3 6 Este 16 Este 0 -- -- 72
2019-05-29 15:00:00 12.4 9 Este 16 Este 0 -- -- 73
2019-05-29 14:00:00 11.1 10 Este 17 Este 0 -- -- 77
2019-05-29 13:00:00 10.3 8 Este 13 Este 0 -- -- 82
2019-05-29 12:00:00 10.3 3 Norte 12 Norte 0 -- -- 78
2019-05-29 11:00:00 10.4 2 Nordeste 12 Este 0 -- -- 73
2019-05-29 10:00:00 9.5 4 Norte 11 Este 0 -- -- 75
2019-05-29 09:00:00 9.3 0 Calma 5 Sur 0 -- -- 74
2019-05-29 08:00:00 8.8 0 Calma 5 Sur 0 -- -- 78
2019-05-29 07:00:00 8.3 0 Calma 6 Sur 0 -- -- 77
2019-05-29 06:00:00 8.2 0 Calma 5 Oeste 0 -- -- 79
2019-05-29 05:00:00 8.2 2 Sur 6 Sur 0 -- -- 77
2019-05-29 04:00:00 8.3 0 Calma 6 Oeste 0 -- -- 77
2019-05-29 03:00:00 8.3 0 Calma 5 Sur 0 -- -- 76
2019-05-29 02:00:00 8.4 0 Calma 4 Sur 0 -- -- 78
2019-05-29 01:00:00 8.5 2 Sur 7 Este 0 -- -- 77
2019-05-29 00:00:00 8.5 3 Este 9 Este 0 -- -- 76
2019-05-28 23:00:00 8.6 7 Este 17 Este 0 -- -- 70
2019-05-28 22:00:00 8.7 8 Norte 17 Norte 0 -- -- 65
2019-05-28 21:00:00 11.6 13 Norte 21 Norte 0 -- -- 52
2019-05-28 20:00:00 12.5 11 Norte 24 Norte 0 -- -- 48
2019-05-28 19:00:00 13 15 Norte 24 Norte 0 -- -- 50
2019-05-28 18:00:00 12.7 14 Norte 23 Norte 0 -- -- 54
2019-05-28 17:00:00 13.9 14 Norte 25 Norte 0 -- -- 51
2019-05-28 16:00:00 12.5 14 Norte 26 Norte 0 -- -- 57
2019-05-28 15:00:00 12.8 14 Norte 26 Noroeste 0 -- -- 53
2019-05-28 14:00:00 12.4 7 Norte 27 Norte 0 -- -- 57
2019-05-28 13:00:00 11.7 6 Norte 18 Norte 0 -- -- 58
2019-05-28 12:00:00 11.8 7 Norte 18 Norte 0 -- -- 59
2019-05-28 11:00:00 10.4 5 Norte 11 Sur 0 -- -- 60
2019-05-28 10:00:00 9.3 3 Sudeste 10 Este 0 -- -- 65
2019-05-28 09:00:00 8.7 3 Nordeste 12 Este 0 -- -- 73
2019-05-28 08:00:00 7.8 0 Calma 5 Este 0 -- -- 84
2019-05-28 07:00:00 7.2 4 Este 8 Norte 0 -- -- 89
2019-05-28 06:00:00 7 4 Este 9 Este 0 -- -- 91
2019-05-28 05:00:00 6.9 6 Este 8 Este 0 -- -- 96
2019-05-28 04:00:00 7.2 6 Este 12 Este 0 -- -- 94
2019-05-28 03:00:00 7.5 5 Este 12 Este 0 -- -- 93
2019-05-28 02:00:00 7.5 8 Este 11 Este 0 -- -- 93
2019-05-28 01:00:00 8.2 7 Este 13 Este 0 -- -- 93
2019-05-28 00:00:00 8.7 8 Este 15 Este 0 -- -- 92
2019-05-27 23:00:00 8.4 7 Este 14 Este 0 -- -- 91
2019-05-27 22:00:00 10 10 Este 21 Norte 0 -- -- 89
2019-05-27 21:00:00 12.5 13 Norte 26 Norte 0 -- -- 73
2019-05-27 20:00:00 14.4 10 Nordeste 22 Norte 0 -- -- 69
2019-05-27 19:00:00 14.9 14 Norte 23 Norte 0 -- -- 66
2019-05-27 18:00:00 16.8 10 Nordeste 27 Este 0 -- -- 64
2019-05-27 17:00:00 16.8 9 Este 22 Este 0 -- -- 61
2019-05-27 16:00:00 16.1 8 Norte 19 Norte 0 -- -- 62
2019-05-27 15:00:00 16.2 6 Norte 15 Norte 0 -- -- 63
2019-05-27 14:00:00 15.2 5 Norte 15 Norte 0 -- -- 62
2019-05-27 13:00:00 15.5 3 Norte 17 Norte 0 -- -- 62
2019-05-27 12:00:00 13.5 3 Este 10 Norte 0 -- -- 69
2019-05-27 11:00:00 12.4 4 Este 12 Este 0 -- -- 73
2019-05-27 10:00:00 11.4 6 Este 10 Este 0 -- -- 83
2019-05-27 09:00:00 9.1 0 Calma 5 Sur 0 -- -- 93
2019-05-27 08:00:00 6.7 0 Calma 6 Sur 0 -- -- 95
2019-05-27 07:00:00 5.5 3 Sur 8 Sur 0 -- -- 96
2019-05-27 06:00:00 6 0 Calma 7 Este 0 -- -- 97
2019-05-27 05:00:00 6.1 3 Sudeste 8 Este 0 -- -- 96
2019-05-27 04:00:00 6.4 0 Calma 10 Este 0 -- -- 96
2019-05-27 03:00:00 6.3 0 Calma 6 Oeste 0 -- -- 95
2019-05-27 02:00:00 6.6 3 Sudoeste 12 Este 0 -- -- 93
2019-05-27 01:00:00 7.7 8 Este 14 Este 0 -- -- 94
2019-05-27 00:00:00 8.6 7 Este 17 Este 0 -- -- 94
2019-05-26 23:00:00 8.9 9 Este 18 Este 0 -- -- 93
2019-05-26 22:00:00 10.4 13 Este 19 Este 0 -- -- 87
2019-05-26 21:00:00 11.4 10 Este 22 Este 0 -- -- 82
2019-05-26 20:00:00 12.3 14 Este 21 Este 0 -- -- 76
2019-05-26 19:00:00 13.9 10 Este 18 Este 0 -- -- 70
2019-05-26 18:00:00 13.4 11 Este 21 Este 0 -- -- 72
2019-05-26 17:00:00 13.2 13 Este 22 Este 0 -- -- 71
2019-05-26 16:00:00 12.5 8 Este 14 Este 0 -- -- 74
2019-05-26 15:00:00 12.1 6 Este 14 Sur 0 -- -- 73
2019-05-26 14:00:00 12.1 6 Nordeste 17 Este 0 -- -- 74
2019-05-26 13:00:00 12.7 5 Nordeste 17 Norte 0 -- -- 70
2019-05-26 12:00:00 12.1 6 Norte 12 Norte 0 -- -- 73
2019-05-26 11:00:00 10.9 2 Sudeste 12 Este 0 -- -- 82
2019-05-26 10:00:00 10 4 Este 10 Este 0 -- -- 83
2019-05-26 09:00:00 9.2 3 Sudeste 10 Este 0 -- -- 87
2019-05-26 08:00:00 8 4 Sudeste 15 Este 0.1 -- -- 96
2019-05-26 07:00:00 7.6 10 Este 14 Este 0 -- -- 98
2019-05-26 06:00:00 7.5 5 Este 9 Este 0 -- -- 97
2019-05-26 05:00:00 7.7 6 Este 10 Este 0 -- -- 93
2019-05-26 04:00:00 7.8 4 Este 13 Este 0 -- -- 93
2019-05-26 03:00:00 7.8 7 Este 10 Este 0 -- -- 93
2019-05-26 02:00:00 7.6 3 Este 8 Este 0 -- -- 94
2019-05-26 01:00:00 7.7 5 Este 8 Este 0 -- -- 94
2019-05-26 00:00:00 8 4 Este 14 Este 0 -- -- 93
2019-05-25 23:00:00 8.2 8 Este 14 Este 0 -- -- 93
2019-05-25 22:00:00 8.8 8 Este 16 Norte 0 -- -- 86
2019-05-25 21:00:00 10.5 10 Norte 18 Este 0 -- -- 75
2019-05-25 20:00:00 11.9 11 Este 20 Este 0 -- -- 70
2019-05-25 19:00:00 12.4 11 Este 19 Este 0 -- -- 72
2019-05-25 18:00:00 12 13 Este 23 Norte 0 -- -- 73
2019-05-25 17:00:00 12.8 11 Este 24 Este 0 -- -- 69
2019-05-25 16:00:00 12.4 12 Norte 22 Norte 0 -- -- 73
2019-05-25 15:00:00 11.1 11 Nordeste 21 Este 0 -- -- 79
2019-05-25 14:00:00 11.8 11 Este 20 Este 0 -- -- 77
2019-05-25 13:00:00 10.8 6 Este 14 Este 0 -- -- 81
2019-05-25 12:00:00 10 7 Este 13 Este 0 -- -- 85
2019-05-25 11:00:00 9.5 6 Norte 10 Norte 0 -- -- 84
2019-05-25 10:00:00 9 4 Oeste 10 Norte 0 -- -- 86
2019-05-25 09:00:00 8.6 6 Norte 10 Norte 0 -- -- 88
2019-05-25 08:00:00 8.4 3 Norte 7 Oeste 0.1 -- -- 93
2019-05-25 07:00:00 8.2 3 Norte 13 Este 0 -- -- 94
2019-05-25 06:00:00 8.4 5 Norte 15 Oeste 0 -- -- 91
2019-05-25 05:00:00 8.6 3 Norte 10 Norte 0 -- -- 92
2019-05-25 04:00:00 8.5 7 Norte 13 Norte 0 -- -- 92
2019-05-25 03:00:00 8.4 9 Norte 19 Norte 0.1 -- -- 93
2019-05-25 02:00:00 8.6 4 Norte 13 Norte 0 -- -- 95
2019-05-25 01:00:00 8.7 5 Nordeste 13 Este 0 -- -- 97
2019-05-25 00:00:00 8.8 8 Este 12 Este 0 -- -- 94
2019-05-24 23:00:00 9.1 8 Este 15 Norte 0 -- -- 90
2019-05-24 22:00:00 9.2 8 Nordeste 16 Este 0 -- -- 88
2019-05-24 21:00:00 9.2 10 Este 23 Este 0 -- -- 87
2019-05-24 20:00:00 9.9 9 Nordeste 19 Norte 0 -- -- 83
2019-05-24 19:00:00 10.4 10 Norte 24 Noroeste 0 -- -- 79
2019-05-24 18:00:00 10.3 17 Norte 26 Norte 0 -- -- 78
2019-05-24 17:00:00 11.7 9 Nordeste 17 Este 0 -- -- 76
2019-05-24 16:00:00 11 8 Este 16 Este 0 -- -- 80
2019-05-24 15:00:00 11.2 10 Este 18 Norte 0 -- -- 79
2019-05-24 14:00:00 10.4 6 Nordeste 13 Este 0 -- -- 83
2019-05-24 13:00:00 10.3 6 Norte 13 Norte 0 -- -- 83
2019-05-24 12:00:00 10.2 4 Norte 13 Norte 0 -- -- 81
2019-05-24 11:00:00 9.6 6 Norte 12 Norte 0 -- -- 84
2019-05-24 10:00:00 9 5 Norte 13 Norte 0 -- -- 86
2019-05-24 09:00:00 8.7 5 Norte 16 Norte 0 -- -- 94
2019-05-24 08:00:00 8.8 7 Nordeste 15 Este 0 -- -- 96
2019-05-24 07:00:00 9 8 Este 15 Este 0.1 -- -- 98
2019-05-24 06:00:00 9.1 7 Este 14 Este 0 -- -- 99
2019-05-24 05:00:00 9 9 Este 18 Este 2 -- -- 99
2019-05-24 04:00:00 9.4 6 Este 14 Este 1 -- -- 96
2019-05-24 03:00:00 9.9 8 Este 16 Este 0 -- -- 94
2019-05-24 02:00:00 10.2 7 Este 14 Este 0 -- -- 96
2019-05-24 01:00:00 10.2 9 Este 17 Este 0 -- -- 97
2019-05-24 00:00:00 10.3 8 Nordeste 20 Este 0 -- -- 97
2019-05-23 23:00:00 10.4 12 Este 28 Este 0.5 -- -- 95
2019-05-23 22:00:00 11.6 10 Este 28 Norte 0 -- -- 88
2019-05-23 21:00:00 13 15 Norte 26 Norte 0 -- -- 75
2019-05-23 20:00:00 15 13 Nordeste 26 Norte 0 -- -- 64
2019-05-23 19:00:00 16.8 13 Nordeste 26 Norte 0 -- -- 61
2019-05-23 18:00:00 20 12 Este 20 Este 0 -- -- 54
2019-05-23 17:00:00 19.4 9 Este 16 Este 0 -- -- 55
2019-05-23 16:00:00 18.8 10 Este 19 Este 0 -- -- 55
2019-05-23 15:00:00 18.9 10 Este 21 Este 0 -- -- 54
2019-05-23 14:00:00 18.8 8 Este 15 Este 0 -- -- 53
2019-05-23 13:00:00 18.4 9 Este 15 Este 0 -- -- 51
2019-05-23 12:00:00 17.3 7 Nordeste 15 Este 0 -- -- 57
2019-05-23 11:00:00 17.8 7 Este 14 Este 0 -- -- 59
2019-05-23 10:00:00 16.2 2 Este 5 Este 0 -- -- 64
2019-05-23 09:00:00 13.5 0 Calma 4 Sur 0 -- -- 77
2019-05-23 08:00:00 10.5 2 Sudoeste 6 Oeste 0 -- -- 82
2019-05-23 07:00:00 9.7 0 Calma 8 Sudoeste 0 -- -- 85
2019-05-23 06:00:00 9.2 3 Sudoeste 9 Sur 0 -- -- 87
2019-05-23 05:00:00 8.6 3 Sudoeste 8 Sur 0 -- -- 86
2019-05-23 04:00:00 8.7 3 Sudoeste 11 Oeste 0 -- -- 82
2019-05-23 03:00:00 9.2 2 Sudoeste 9 Sur 0 -- -- 81
2019-05-23 02:00:00 9.9 3 Sudoeste 9 Oeste 0 -- -- 78
2019-05-23 01:00:00 10.6 0 Calma 8 Oeste 0 -- -- 76
2019-05-23 00:00:00 11.8 0 Calma 6 Sur 0 -- -- 72
2019-05-22 23:00:00 13.4 3 Sur 8 Este 0 -- -- 67
2019-05-22 22:00:00 14.3 7 Este 9 Este 0 -- -- 66
2019-05-22 21:00:00 16.8 8 Este 12 Este 0 -- -- 57
2019-05-22 20:00:00 19.1 6 Este 18 Este 0 -- -- 47
2019-05-22 19:00:00 22.6 2 Oeste 15 Oeste 0 -- -- 31
2019-05-22 18:00:00 22.7 7 Noroeste 15 Oeste 0 -- -- 32
2019-05-22 17:00:00 22 3 Nordeste 19 Este 0 -- -- 36
2019-05-22 16:00:00 21.1 3 Nordeste 16 Norte 0 -- -- 37
2019-05-22 15:00:00 19.9 6 Norte 16 Norte 0 -- -- 41
2019-05-22 14:00:00 18.6 6 Norte 14 Norte 0 -- -- 43
2019-05-22 13:00:00 17 5 Norte 13 Este 0 -- -- 50
2019-05-22 12:00:00 15.6 5 Norte 15 Este 0 -- -- 53
2019-05-22 11:00:00 14.1 4 Nordeste 15 Este 0 -- -- 65
2019-05-22 10:00:00 11.5 6 Norte 10 Noroeste 0 -- -- 75
2019-05-22 09:00:00 9.9 0 Calma 6 Sur 0 -- -- 77
2019-05-22 08:00:00 6.5 0 Calma 6 Sur 0 -- -- 87
2019-05-22 07:00:00 3.9 2 Sudoeste 8 Sur 0 -- -- 90
2019-05-22 06:00:00 4 4 Sudoeste 9 Oeste 0 -- -- 88
2019-05-22 05:00:00 4 0 Calma 7 Sur 0 -- -- 87
2019-05-22 04:00:00 4.2 2 Sudoeste 8 Oeste 0 -- -- 87
2019-05-22 03:00:00 4.8 0 Calma 8 Sur 0 -- -- 86
2019-05-22 02:00:00 5.6 3 Sudoeste 7 Sur 0 -- -- 83
2019-05-22 01:00:00 7.2 3 Sur 7 Sudeste 0 -- -- 82
2019-05-22 00:00:00 7.6 3 Este 9 Este 0 -- -- 83